Time;durP1;ratioP1;P1;durP2;ratioP2;P2;SDS_P1;SDS_P2;PMS_P1;PMS_P2;Temp;Humidity;BMP_temperature;BMP_pressure;BME280_temperature;BME280_humidity;BME280_pressure;Samples;Min_cycle;Max_cycle;Signal;HPM_P1;HPM_P2
2023/10/09 00:00:50;;;;;;;;;;;;;;;-144.99;100.00;52395.09;5050909;28;20026;-61
2023/10/09 00:03:17;;;;;;;;;;;;;;;-144.99;100.00;52370.63;5047489;28;20046;-60
2023/10/09 00:05:46;;;;;;;;;;;;;;;-144.99;100.00;52338.03;5042690;28;19944;-65
2023/10/09 00:08:16;;;;;;;;;;;;;;;-144.99;100.00;52374.72;5050032;28;20035;-63
2023/10/09 00:10:49;;;;;;;;;;;;;;;-144.99;100.00;52421.59;5046587;28;20032;-62
2023/10/09 00:13:18;;;;;;;;;;;;;;;-144.99;100.00;52448.09;5046237;28;20283;-62
2023/10/09 00:15:51;;;;;;;;;;;;;;;-144.99;100.00;52399.19;5040898;28;19978;-65
2023/10/09 00:18:22;;;;;;;;;;;;;;;-144.99;100.00;52423.63;5046633;28;19940;-66
2023/10/09 00:20:54;;;;;;;;;;;;;;;-144.99;100.00;52378.78;5041182;28;19957;-65
2023/10/09 00:23:25;;;;;;;;;;;;;;;-144.99;100.00;52395.09;5041131;28;19941;-66
2023/10/09 00:26:08;;;;;;;;;;;;;;;-144.99;100.00;52378.78;5047579;28;19945;-66
2023/10/09 00:28:36;;;;;;;;;;;;;;;-144.99;100.00;52427.72;5049343;28;19941;-64
2023/10/09 00:31:06;;;;;;;;;;;;;;;-144.99;100.00;52399.19;5047442;28;19984;-62
2023/10/09 00:33:33;;;;;;;;;;;;;;;-144.99;100.00;52362.50;5049474;28;19943;-64
2023/10/09 00:36:08;;;;;;;;;;;;;;;-144.99;100.00;52435.88;5047075;28;19939;-65
2023/10/09 00:38:36;;;;;;;;;;;;;;;-144.99;100.00;52366.56;5046868;28;19942;-66
2023/10/09 00:41:10;;;;;;;;;;;;;;;-144.99;100.00;52399.19;5046407;28;20312;-66
2023/10/09 00:43:38;;;;;;;;;;;;;;;-144.99;100.00;52435.88;5045839;28;20026;-65
2023/10/09 00:46:08;;;;;;;;;;;;;;;-144.99;100.00;52386.94;4696571;28;10000390;-67
2023/10/09 00:48:39;;;;;;;;;;;;;;;-144.99;100.00;52391.03;5047857;28;19977;-66
2023/10/09 00:51:16;;;;;;;;;;;;;;;-144.99;100.00;52360.44;5048730;28;19964;-66
2023/10/09 00:53:44;;;;;;;;;;;;;;;-144.99;100.00;52386.94;5044128;28;19949;-64
2023/10/09 00:56:18;;;;;;;;;;;;;;;-144.99;100.00;52391.03;5041970;28;19940;-65
2023/10/09 00:58:48;;;;;;;;;;;;;;;-144.99;100.00;52403.25;5050910;28;19970;-67
2023/10/09 01:01:16;;;;;;;;;;;;;;;-144.99;100.00;52386.94;5056313;28;19958;-65
2023/10/09 01:03:43;;;;;;;;;;;;;;;-144.99;100.00;52427.72;5054677;28;19996;-66
2023/10/09 01:06:21;;;;;;;;;;;;;;;-144.99;100.00;52407.31;5054502;28;20396;-66
2023/10/09 01:08:56;;;;;;;;;;;;;;;-144.99;100.00;52411.41;5053317;28;19949;-64
2023/10/09 01:11:23;;;;;;;;;;;;;;;-144.99;100.00;52376.75;5045805;28;19994;-63
2023/10/09 01:13:59;;;;;;;;;;;;;;;-144.99;100.00;52399.19;5050745;28;19941;-63
2023/10/09 01:16:28;;;;;;;;;;;;;;;-144.99;100.00;52397.13;5040825;28;19982;-65
2023/10/09 01:18:57;;;;;;;;;;;;;;;-144.99;100.00;52378.78;5046781;28;20002;-66
2023/10/09 01:21:25;;;;;;;;;;;;;;;-144.99;100.00;52403.25;5047652;28;19961;-68
2023/10/09 01:24:03;;;;;;;;;;;;;;;-144.99;100.00;52374.72;5046627;28;19945;-66
2023/10/09 01:26:32;;;;;;;;;;;;;;;-144.99;100.00;52403.25;5042225;28;19938;-65
2023/10/09 01:29:00;;;;;;;;;;;;;;;-144.99;100.00;52444.03;5042992;28;19990;-64
2023/10/09 01:31:27;;;;;;;;;;;;;;;-144.99;100.00;52423.63;5042626;28;19970;-64
2023/10/09 01:33:54;;;;;;;;;;;;;;;-144.99;100.00;52407.31;5050409;28;19945;-65
2023/10/09 01:36:31;;;;;;;;;;;;;;;-144.99;100.00;52395.09;5051137;28;20514;-64
2023/10/09 01:38:59;;;;;;;;;;;;;;;-144.99;100.00;52437.91;5049939;28;20030;-64
2023/10/09 01:41:25;;;;;;;;;;;;;;;-144.99;100.00;52407.31;5047634;28;20043;-64
2023/10/09 01:44:00;;;;;;;;;;;;;;;-144.99;100.00;52397.13;5050188;28;20394;-64
2023/10/09 01:46:27;;;;;;;;;;;;;;;-144.99;100.00;52423.63;5034374;28;20383;-65
2023/10/09 01:48:54;;;;;;;;;;;;;;;-144.99;100.00;52391.03;5042714;28;20402;-64
2023/10/09 01:51:21;;;;;;;;;;;;;;;-144.99;100.00;52391.03;5050048;28;19960;-64
2023/10/09 01:53:54;;;;;;;;;;;;;;;-144.99;100.00;52421.59;5050040;28;20021;-65
2023/10/09 01:56:22;;;;;;;;;;;;;;;-144.99;100.00;52370.63;5050252;28;19946;-64
2023/10/09 01:58:50;;;;;;;;;;;;;;;-144.99;100.00;52431.78;5046772;28;20039;-64
2023/10/09 02:01:16;;;;;;;;;;;;;;;-144.99;100.00;52391.03;5048659;28;19967;-63
2023/10/09 02:03:43;;;;;;;;;;;;;;;-144.99;100.00;52433.81;5049422;28;19937;-61
2023/10/09 02:06:26;;;;;;;;;;;;;;;-144.99;100.00;52391.03;5050214;28;19941;-60
2023/10/09 02:08:56;;;;;;;;;;;;;;;-144.99;100.00;52415.47;5045324;28;20977;-60
2023/10/09 02:11:36;;;;;;;;;;;;;;;-144.99;100.00;52399.19;5037043;28;20501;-60
2023/10/09 02:14:15;;;;;;;;;;;;;;;-144.99;100.00;52431.78;5048775;28;20000;-60
2023/10/09 02:16:42;;;;;;;;;;;;;;;-144.99;100.00;52427.72;5044056;28;19945;-61
2023/10/09 02:19:28;;;;;;;;;;;;;;;-144.99;100.00;52431.78;5037907;28;19948;-60
2023/10/09 02:21:56;;;;;;;;;;;;;;;-144.99;100.00;52423.63;5045553;28;20583;-62
2023/10/09 02:24:41;;;;;;;;;;;;;;;-144.99;100.00;52395.09;5045859;28;20039;-61
2023/10/09 02:27:11;;;;;;;;;;;;;;;-144.99;100.00;52439.94;5047417;28;20394;-61
2023/10/09 02:29:38;;;;;;;;;;;;;;;-144.99;100.00;52358.41;5048193;28;19953;-62
2023/10/09 02:32:13;;;;;;;;;;;;;;;-144.99;100.00;52429.75;5049637;28;20452;-62
2023/10/09 02:34:40;;;;;;;;;;;;;;;-144.99;100.00;52427.72;5050389;28;19956;-61
2023/10/09 02:37:11;;;;;;;;;;;;;;;-144.99;100.00;52407.31;5049881;28;19942;-61
2023/10/09 02:39:43;;;;;;;;;;;;;;;-144.99;100.00;52435.88;5044377;28;19953;-62
2023/10/09 02:42:23;;;;;;;;;;;;;;;-144.99;100.00;52415.47;5048726;28;19949;-62
2023/10/09 02:44:51;;;;;;;;;;;;;;;-144.99;100.00;52407.31;5049453;28;19945;-61
2023/10/09 02:47:20;;;;;;;;;;;;;;;-144.99;100.00;52415.47;5046448;28;19941;-62
2023/10/09 02:49:48;;;;;;;;;;;;;;;-144.99;100.00;52423.63;5046940;28;20053;-62
2023/10/09 02:52:18;;;;;;;;;;;;;;;-144.99;100.00;52374.72;5046947;28;19963;-62
2023/10/09 02:54:47;;;;;;;;;;;;;;;-144.99;100.00;52427.72;5047692;28;20175;-64
2023/10/09 02:57:21;;;;;;;;;;;;;;;-144.99;100.00;52407.31;5048909;28;19990;-64
2023/10/09 02:59:51;;;;;;;;;;;;;;;-144.99;100.00;52403.25;5048405;28;19963;-63
2023/10/09 03:02:17;;;;;;;;;;;;;;;-144.99;100.00;52444.03;5039822;28;20055;-64
2023/10/09 03:04:44;;;;;;;;;;;;;;;-144.99;100.00;52350.25;5040556;28;20057;-63
2023/10/09 03:07:13;;;;;;;;;;;;;;;-144.99;100.00;52415.47;5049670;28;20017;-62
2023/10/09 03:09:40;;;;;;;;;;;;;;;-144.99;100.00;52313.56;5046708;28;19959;-64
2023/10/09 03:12:09;;;;;;;;;;;;;;;-144.99;100.00;52399.19;5042699;28;19963;-66
2023/10/09 03:14:38;;;;;;;;;;;;;;;-144.99;100.00;52415.47;5048175;28;19984;-66
2023/10/09 03:17:06;;;;;;;;;;;;;;;-144.99;100.00;52395.09;5036001;28;20037;-65
2023/10/09 03:19:37;;;;;;;;;;;;;;;-144.99;100.00;52423.63;5047268;28;19963;-66
2023/10/09 03:22:03;;;;;;;;;;;;;;;-144.99;100.00;52419.56;5047379;28;20354;-67
2023/10/09 03:24:30;;;;;;;;;;;;;;;-144.99;100.00;52419.56;5047246;22;19988;-68
2023/10/09 03:26:57;;;;;;;;;;;;;;;-144.99;100.00;52417.53;5038456;28;19952;-68
2023/10/09 03:29:24;;;;;;;;;;;;;;;-144.99;100.00;52417.53;5035634;28;19942;-61
2023/10/09 03:31:52;;;;;;;;;;;;;;;-144.99;100.00;52409.38;5029420;28;19946;-61
2023/10/09 03:34:19;;;;;;;;;;;;;;;-144.99;100.00;52425.66;5031321;28;19945;-62
2023/10/09 03:36:47;;;;;;;;;;;;;;;-144.99;100.00;52419.56;5032039;28;19939;-62
2023/10/09 03:39:24;;;;;;;;;;;;;;;-144.99;100.00;52391.03;5031954;28;20585;-61
2023/10/09 03:41:51;;;;;;;;;;;;;;;-144.99;100.00;52399.19;5027543;28;20376;-61
2023/10/09 03:44:18;;;;;;;;;;;;;;;-144.99;100.00;52407.31;5031134;28;19984;-61
2023/10/09 03:46:45;;;;;;;;;;;;;;;-144.99;100.00;52399.19;5031974;28;19995;-64
2023/10/09 03:49:22;;;;;;;;;;;;;;;-144.99;100.00;52423.63;5031523;28;19998;-61
2023/10/09 03:51:49;;;;;;;;;;;;;;;-144.99;100.00;52413.44;5030362;28;20324;-67
2023/10/09 03:54:20;;;;;;;;;;;;;;;-144.99;100.00;52370.63;5031157;28;20441;-66
2023/10/09 03:56:49;;;;;;;;;;;;;;;-144.99;100.00;52401.22;5031028;28;20352;-67
2023/10/09 03:59:16;;;;;;;;;;;;;;;-144.99;100.00;52382.88;5029804;28;20433;-66
2023/10/09 04:01:43;;;;;;;;;;;;;;;-144.99;100.00;52437.91;5030386;28;19938;-66
2023/10/09 04:04:13;;;;;;;;;;;;;;;-144.99;100.00;52423.63;5026999;28;20037;-66
2023/10/09 04:06:41;;;;;;;;;;;;;;;-144.99;100.00;52411.41;5031453;28;19990;-67
2023/10/09 04:09:27;;;;;;;;;;;;;;;-144.99;100.00;52407.31;5027991;28;20328;-66
2023/10/09 04:12:13;;;;;;;;;;;;;;;-144.99;100.00;52435.88;5027280;28;19946;-66
2023/10/09 04:14:48;;;;;;;;;;;;;;;-144.99;100.00;52431.78;5029753;28;19944;-66
2023/10/09 04:22:39;;;;;;;;;;;;;;;-144.99;100.00;52382.88;5030189;28;19941;-63
2023/10/09 04:25:07;;;;;;;;;;;;;;;-144.99;100.00;52415.47;5029059;28;19945;-69
2023/10/09 04:27:37;;;;;;;;;;;;;;;-144.99;100.00;52378.78;5030762;28;19949;-68
2023/10/09 04:30:07;;;;;;;;;;;;;;;-144.99;100.00;52399.19;5030914;28;20037;-68
2023/10/09 04:32:34;;;;;;;;;;;;;;;-144.99;100.00;52399.19;5029094;28;19958;-68
2023/10/09 04:35:20;;;;;;;;;;;;;;;-144.99;100.00;52399.19;5028748;28;19973;-69
2023/10/09 04:37:52;;;;;;;;;;;;;;;-144.99;100.00;52395.09;5025609;28;19974;-68
2023/10/09 04:40:41;;;;;;;;;;;;;;;-144.99;100.00;52388.97;5030688;28;19957;-68
2023/10/09 04:43:06;;;;;;;;;;;;;;;-144.99;100.00;52395.09;5027844;28;19947;-68
2023/10/09 04:48:37;;;;;;;;;;;;;;;-144.99;100.00;52409.38;5023999;28;19937;-68
2023/10/09 04:51:34;;;;;;;;;;;;;;;-144.99;100.00;52423.63;5030182;28;19992;-68
2023/10/09 04:54:12;;;;;;;;;;;;;;;-144.99;100.00;52429.75;5029237;28;19973;-69
2023/10/09 04:56:51;;;;;;;;;;;;;;;-144.99;100.00;52395.09;5034971;28;20031;-69
2023/10/09 04:59:18;;;;;;;;;;;;;;;-144.99;100.00;52382.88;5029941;28;19939;-68
2023/10/09 05:01:49;;;;;;;;;;;;;;;-144.99;100.00;52382.88;5030557;28;20284;-69
2023/10/09 05:04:39;;;;;;;;;;;;;;;-144.99;100.00;52425.66;5029495;28;19948;-69
2023/10/09 05:07:22;;;;;;;;;;;;;;;-144.99;100.00;52399.19;5026343;28;19953;-72
2023/10/09 05:09:55;;;;;;;;;;;;;;;-144.99;100.00;52378.78;4679432;28;10001424;-72
2023/10/09 05:12:26;;;;;;;;;;;;;;;-144.99;100.00;52403.25;5028751;28;20237;-72
2023/10/09 05:15:08;;;;;;;;;;;;;;;-144.99;100.00;52386.94;5022943;28;19942;-72
2023/10/09 05:17:35;;;;;;;;;;;;;;;-144.99;100.00;52419.56;5025666;28;19941;-71
2023/10/09 05:22:56;;;;;;;;;;;;;;;-144.99;100.00;52378.78;5026059;28;19996;-71
2023/10/09 05:28:25;;;;;;;;;;;;;;;-144.99;100.00;52386.94;5027264;28;20028;-71
2023/10/09 05:31:02;;;;;;;;;;;;;;;-144.99;100.00;52433.81;5024525;28;19968;-71
2023/10/09 05:33:28;;;;;;;;;;;;;;;-144.99;100.00;52378.78;5023926;28;20523;-72
2023/10/09 05:36:05;;;;;;;;;;;;;;;-144.99;100.00;52415.47;5036673;28;19946;-71
2023/10/09 05:38:35;;;;;;;;;;;;;;;-144.99;100.00;52435.88;5038641;28;20085;-72
2023/10/09 05:41:31;;;;;;;;;;;;;;;-144.99;100.00;52448.09;5042696;28;19957;-71
2023/10/09 05:46:36;;;;;;;;;;;;;;;-144.99;100.00;52444.03;5046253;28;19950;-71
2023/10/09 05:49:19;;;;;;;;;;;;;;;-144.99;100.00;52407.31;5039942;28;20087;-70
2023/10/09 05:51:53;;;;;;;;;;;;;;;-144.99;100.00;52411.41;5037185;28;20401;-71
2023/10/09 06:08:06;;;;;;;;;;;;;;;-144.99;100.00;52407.31;5033652;28;19958;-71
2023/10/09 06:10:39;;;;;;;;;;;;;;;-144.99;100.00;52431.78;5031621;28;20453;-71
2023/10/09 06:13:26;;;;;;;;;;;;;;;-144.99;100.00;52415.47;5028385;28;20412;-70
2023/10/09 06:16:09;;;;;;;;;;;;;;;-144.99;100.00;52401.22;5026451;28;20053;-70
2023/10/09 06:18:34;;;;;;;;;;;;;;;-144.99;100.00;52419.56;5027123;28;20459;-71
2023/10/09 06:24:08;;;;;;;;;;;;;;;-144.99;100.00;52419.56;5019591;28;20274;-72
2023/10/09 06:26:35;;;;;;;;;;;;;;;-144.99;100.00;52419.56;5024097;28;20322;-70
2023/10/09 06:29:16;;;;;;;;;;;;;;;-144.99;100.00;52395.09;5025731;28;20033;-70
2023/10/09 06:34:35;;;;;;;;;;;;;;;-144.99;100.00;52456.25;5006793;28;19933;-70
2023/10/09 06:37:07;;;;;;;;;;;;;;;-144.99;100.00;52419.56;5028030;28;20054;-70
2023/10/09 06:42:33;;;;;;;;;;;;;;;-144.99;100.00;52419.56;5025435;28;20152;-71
2023/10/09 06:45:04;;;;;;;;;;;;;;;-144.99;100.00;52397.13;5024467;28;20024;-70
2023/10/09 06:47:36;;;;;;;;;;;;;;;-144.99;100.00;52415.47;5025551;28;19939;-70
2023/10/09 06:53:19;;;;;;;;;;;;;;;-144.99;100.00;52403.25;5026661;28;20046;-69
2023/10/09 06:55:51;;;;;;;;;;;;;;;-144.99;100.00;52409.38;5020647;28;20004;-69
2023/10/09 06:58:25;;;;;;;;;;;;;;;-144.99;100.00;52425.66;5021627;28;19965;-71
2023/10/09 07:01:19;;;;;;;;;;;;;;;-144.99;100.00;52450.13;5025781;28;20346;-69
2023/10/09 07:03:51;;;;;;;;;;;;;;;-144.99;100.00;52444.03;5024712;28;20428;-70
2023/10/09 07:06:23;;;;;;;;;;;;;;;-144.99;100.00;52382.88;5025467;28;20000;-69
2023/10/09 07:09:15;;;;;;;;;;;;;;;-144.99;100.00;52421.59;5025134;28;19953;-70
2023/10/09 07:11:57;;;;;;;;;;;;;;;-144.99;100.00;52441.97;5025397;28;19942;-69
2023/10/09 07:17:21;;;;;;;;;;;;;;;-144.99;100.00;52380.84;5021470;28;19942;-69
2023/10/09 07:20:13;;;;;;;;;;;;;;;-144.99;100.00;52419.56;5023538;28;19969;-69
2023/10/09 07:22:53;;;;;;;;;;;;;;;-144.99;100.00;52403.25;5025057;28;19964;-69
2023/10/09 07:25:29;;;;;;;;;;;;;;;-144.99;100.00;52419.56;5024653;28;20044;-69
2023/10/09 07:27:59;;;;;;;;;;;;;;;-144.99;100.00;52419.56;5019435;28;20053;-69
2023/10/09 07:30:38;;;;;;;;;;;;;;;-144.99;100.00;52393.06;5023231;28;19956;-70
2023/10/09 07:33:16;;;;;;;;;;;;;;;-144.99;100.00;52407.31;5025252;28;20040;-70
2023/10/09 07:35:46;;;;;;;;;;;;;;;-144.99;100.00;52374.72;5025245;28;20001;-70
2023/10/09 07:38:14;;;;;;;;;;;;;;;-144.99;100.00;52407.31;5024981;28;19978;-69
2023/10/09 07:40:55;;;;;;;;;;;;;;;-144.99;100.00;52450.13;5023680;28;19991;-69
2023/10/09 07:43:25;;;;;;;;;;;;;;;-144.99;100.00;52409.38;5027572;28;19957;-69
2023/10/09 07:46:29;;;;;;;;;;;;;;;-144.99;100.00;52370.63;5025648;28;20456;-70
2023/10/09 07:48:51;;;;;;;;;;;;;;;-144.99;100.00;52423.63;5019412;28;20095;-70
2023/10/09 07:51:19;;;;;;;;;;;;;;;-144.99;100.00;52386.94;5023751;28;20511;-71
2023/10/09 07:53:49;;;;;;;;;;;;;;;-144.99;100.00;52439.94;5026038;28;19945;-72
2023/10/09 07:56:20;;;;;;;;;;;;;;;-144.99;100.00;52397.13;5025302;28;19995;-69
2023/10/09 07:58:47;;;;;;;;;;;;;;;-144.99;100.00;52403.25;5024877;28;19965;-69
2023/10/09 08:01:22;;;;;;;;;;;;;;;-144.99;100.00;52403.25;5021398;28;19957;-69
2023/10/09 08:04:01;;;;;;;;;;;;;;;-144.99;100.00;52429.75;5017657;28;20468;-69
2023/10/09 08:06:38;;;;;;;;;;;;;;;-144.99;100.00;52391.03;5021139;28;19970;-70
2023/10/09 08:09:45;;;;;;;;;;;;;;;-144.99;100.00;52399.19;5025729;28;20060;-69
2023/10/09 08:12:38;;;;;;;;;;;;;;;-144.99;100.00;52407.31;5023243;28;19951;-70
2023/10/09 08:15:20;;;;;;;;;;;;;;;-144.99;100.00;52399.19;5028516;28;19959;-70
2023/10/09 08:17:50;;;;;;;;;;;;;;;-144.99;100.00;52403.25;5028637;28;19972;-70
2023/10/09 08:20:24;;;;;;;;;;;;;;;-144.99;100.00;52370.63;5028330;28;20036;-70
2023/10/09 08:22:52;;;;;;;;;;;;;;;-144.99;100.00;52419.56;5025926;28;19948;-70
2023/10/09 08:25:27;;;;;;;;;;;;;;;-144.99;100.00;52415.47;5035758;28;19954;-70
2023/10/09 08:27:57;;;;;;;;;;;;;;;-144.99;100.00;52427.72;5027805;28;20112;-70
2023/10/09 08:30:28;;;;;;;;;;;;;;;-144.99;100.00;52417.53;5027460;28;20000;-71
2023/10/09 08:33:02;;;;;;;;;;;;;;;-144.99;100.00;52419.56;5027575;28;19949;-71
2023/10/09 08:35:29;;;;;;;;;;;;;;;-144.99;100.00;52411.41;5024781;28;19942;-70
2023/10/09 08:37:58;;;;;;;;;;;;;;;-144.99;100.00;52419.56;5028126;28;20063;-70
2023/10/09 08:40:33;;;;;;;;;;;;;;;-144.99;100.00;52452.16;5027830;28;19958;-70
2023/10/09 08:43:08;;;;;;;;;;;;;;;-144.99;100.00;52395.09;5027443;28;19972;-70
2023/10/09 08:45:36;;;;;;;;;;;;;;;-144.99;100.00;52386.94;5019508;28;19946;-70
2023/10/09 08:48:04;;;;;;;;;;;;;;;-144.99;100.00;52431.78;5027453;28;19988;-70
2023/10/09 08:50:34;;;;;;;;;;;;;;;-144.99;100.00;52407.31;5027272;28;19967;-71
2023/10/09 08:53:03;;;;;;;;;;;;;;;-144.99;100.00;52407.31;5030866;28;20001;-70
2023/10/09 08:55:29;;;;;;;;;;;;;;;-144.99;100.00;52407.31;5022648;28;19990;-70
2023/10/09 08:57:57;;;;;;;;;;;;;;;-144.99;100.00;52431.78;5027715;28;20014;-70
2023/10/09 09:00:24;;;;;;;;;;;;;;;-144.99;100.00;52364.53;5028832;28;19965;-70
2023/10/09 09:02:52;;;;;;;;;;;;;;;-144.99;100.00;52415.47;5027417;28;20033;-70
2023/10/09 09:05:20;;;;;;;;;;;;;;;-144.99;100.00;52378.78;5025596;28;20027;-70
2023/10/09 09:07:48;;;;;;;;;;;;;;;-144.99;100.00;52427.72;5027703;28;20485;-70
2023/10/09 09:10:18;;;;;;;;;;;;;;;-144.99;100.00;52378.78;5027384;28;19994;-70
2023/10/09 09:12:45;;;;;;;;;;;;;;;-144.99;100.00;52374.72;5028104;28;19943;-71
2023/10/09 09:15:18;;;;;;;;;;;;;;;-144.99;100.00;52419.56;5030075;28;20409;-70
2023/10/09 09:17:45;;;;;;;;;;;;;;;-144.99;100.00;52423.63;5020824;28;19988;-70
2023/10/09 09:20:23;;;;;;;;;;;;;;;-144.99;100.00;52441.97;5025423;28;20013;-71
2023/10/09 09:22:56;;;;;;;;;;;;;;;-144.99;100.00;52433.81;5027902;28;20009;-70
2023/10/09 09:27:54;;;;;;;;;;;;;;;-144.99;100.00;52391.03;5051806;28;20019;-67
2023/10/09 09:30:25;;;;;;;;;;;;;;;-144.99;100.00;52407.31;5037382;28;19963;-68
2023/10/09 09:33:15;;;;;;;;;;;;;;;-144.99;100.00;52376.75;5022474;28;19946;-68
2023/10/09 09:35:39;;;;;;;;;;;;;;;-144.99;100.00;52391.03;5026000;28;19938;-68
2023/10/09 09:38:07;;;;;;;;;;;;;;;-144.99;100.00;52441.97;5027759;28;19947;-70
2023/10/09 09:40:41;;;;;;;;;;;;;;;-144.99;100.00;52425.66;5030973;28;20025;-69
2023/10/09 09:43:17;;;;;;;;;;;;;;;-144.99;100.00;52423.63;5022436;28;19954;-69
2023/10/09 09:45:48;;;;;;;;;;;;;;;-144.99;100.00;52399.19;5033530;28;19941;-70
2023/10/09 09:48:15;;;;;;;;;;;;;;;-144.99;100.00;52427.72;5026088;28;20327;-71
2023/10/09 09:50:45;;;;;;;;;;;;;;;-144.99;100.00;52419.56;5031822;28;19995;-69
2023/10/09 09:53:16;;;;;;;;;;;;;;;-144.99;100.00;52415.47;5029051;28;19946;-69
2023/10/09 09:55:51;;;;;;;;;;;;;;;-144.99;100.00;52452.16;5022455;28;20022;-69
2023/10/09 09:58:20;;;;;;;;;;;;;;;-144.99;100.00;52417.53;5020131;28;19946;-71
2023/10/09 10:00:52;;;;;;;;;;;;;;;-144.99;100.00;52378.78;5020258;28;19961;-69
2023/10/09 10:03:20;;;;;;;;;;;;;;;-144.99;100.00;52415.47;5016633;28;19943;-69
2023/10/09 10:05:48;;;;;;;;;;;;;;;-144.99;100.00;52386.94;5020080;28;20164;-72
2023/10/09 10:08:19;;;;;;;;;;;;;;;-144.99;100.00;52411.41;5020342;28;20236;-70
2023/10/09 10:10:52;;;;;;;;;;;;;;;-144.99;100.00;52386.94;5017856;28;20332;-70
2023/10/09 10:13:27;;;;;;;;;;;;;;;-144.99;100.00;52374.72;5019288;28;19941;-70
2023/10/09 10:16:00;;;;;;;;;;;;;;;-144.99;100.00;52384.91;5021986;28;19999;-69
2023/10/09 10:18:32;;;;;;;;;;;;;;;-144.99;100.00;52370.63;5021670;28;20040;-69
2023/10/09 10:21:14;;;;;;;;;;;;;;;-144.99;100.00;52380.84;5018775;28;19963;-69
2023/10/09 10:23:41;;;;;;;;;;;;;;;-144.99;100.00;52395.09;5019798;28;20333;-68
2023/10/09 10:26:17;;;;;;;;;;;;;;;-144.99;100.00;52395.09;5020114;28;19952;-71
2023/10/09 10:28:45;;;;;;;;;;;;;;;-144.99;100.00;52350.25;5030288;28;20015;-71
2023/10/09 10:31:13;;;;;;;;;;;;;;;-144.99;100.00;52407.31;5015184;28;20340;-69
2023/10/09 10:34:06;;;;;;;;;;;;;;;-144.99;100.00;52415.47;5023850;28;20360;-70
2023/10/09 10:36:34;;;;;;;;;;;;;;;-144.99;100.00;52370.63;5028311;28;19941;-71
2023/10/09 10:39:07;;;;;;;;;;;;;;;-144.99;100.00;52370.63;5020313;28;20035;-69
2023/10/09 10:41:36;;;;;;;;;;;;;;;-144.99;100.00;52399.19;5023950;28;19971;-69
2023/10/09 10:44:33;;;;;;;;;;;;;;;-144.99;100.00;52342.09;5006837;28;20501;-71
2023/10/09 10:46:52;;;;;;;;;;;;;;;-144.99;100.00;52386.94;5016155;28;20420;-69
2023/10/09 10:49:21;;;;;;;;;;;;;;;-144.99;100.00;52386.94;5024853;28;19991;-70
2023/10/09 10:52:01;;;;;;;;;;;;;;;-144.99;100.00;52448.09;5022897;28;19947;-72
2023/10/09 10:54:47;;;;;;;;;;;;;;;-144.99;100.00;52391.03;5021327;28;19939;-70
2023/10/09 10:57:19;;;;;;;;;;;;;;;-144.99;100.00;52386.94;5022176;28;20309;-70
2023/10/09 10:59:49;;;;;;;;;;;;;;;-144.99;100.00;52350.25;5017455;28;19962;-71
2023/10/09 11:02:27;;;;;;;;;;;;;;;-144.99;100.00;52372.69;4672133;28;9999847;-70
2023/10/09 11:05:14;;;;;;;;;;;;;;;-144.99;100.00;52366.56;5020205;28;20019;-70
2023/10/09 11:07:40;;;;;;;;;;;;;;;-144.99;100.00;52435.88;5014889;28;20305;-70
2023/10/09 11:10:10;;;;;;;;;;;;;;;-144.99;100.00;52415.47;5019423;28;19953;-69
2023/10/09 11:12:55;;;;;;;;;;;;;;;-144.99;100.00;52395.09;5027132;28;19962;-71
2023/10/09 11:15:37;;;;;;;;;;;;;;;-144.99;100.00;52366.56;5025569;28;19950;-72
2023/10/09 11:18:16;;;;;;;;;;;;;;;-144.99;100.00;52413.44;5016030;28;20336;-72
2023/10/09 11:20:56;;;;;;;;;;;;;;;-144.99;100.00;52388.97;5027483;28;20414;-69
2023/10/09 11:23:35;;;;;;;;;;;;;;;-144.99;100.00;52401.22;5033651;28;19941;-69
2023/10/09 11:26:21;;;;;;;;;;;;;;;-144.99;100.00;52374.72;5021336;28;20324;-69
2023/10/09 11:28:49;;;;;;;;;;;;;;;-144.99;100.00;52395.09;5019813;28;20348;-69
2023/10/09 11:31:16;;;;;;;;;;;;;;;-144.99;100.00;52433.81;5020827;28;19957;-68
2023/10/09 11:33:42;;;;;;;;;;;;;;;-144.99;100.00;52391.03;5017098;28;20179;-71
2023/10/09 11:36:09;;;;;;;;;;;;;;;-144.99;100.00;52374.72;5026773;28;19948;-71
2023/10/09 11:38:35;;;;;;;;;;;;;;;-144.99;100.00;52364.53;5034448;28;20028;-69
2023/10/09 11:41:18;;;;;;;;;;;;;;;-144.99;100.00;52362.50;5028594;28;19955;-69
2023/10/09 11:43:51;;;;;;;;;;;;;;;-144.99;100.00;52350.25;5008732;28;19957;-69
2023/10/09 11:46:36;;;;;;;;;;;;;;;-144.99;100.00;52378.78;5036508;28;19956;-70
2023/10/09 11:49:14;;;;;;;;;;;;;;;-144.99;100.00;52395.09;5031096;28;20030;-70
2023/10/09 11:52:03;;;;;;;;;;;;;;;-144.99;100.00;52391.03;5028953;28;20018;-69
2023/10/09 11:54:29;;;;;;;;;;;;;;;-144.99;100.00;52374.72;5027468;28;19935;-71
2023/10/09 11:56:58;;;;;;;;;;;;;;;-144.99;100.00;52374.72;5025528;28;20021;-68
2023/10/09 11:59:27;;;;;;;;;;;;;;;-144.99;100.00;52415.47;5023443;28;19938;-72
2023/10/09 12:01:53;;;;;;;;;;;;;;;-144.99;100.00;52362.50;5030318;28;20379;-70
2023/10/09 12:04:19;;;;;;;;;;;;;;;-144.99;100.00;52354.34;5025226;28;20065;-69
2023/10/09 12:06:46;;;;;;;;;;;;;;;-144.99;100.00;52386.94;5027898;28;19962;-70
2023/10/09 12:09:23;;;;;;;;;;;;;;;-144.99;100.00;52386.94;5025921;28;20001;-69
2023/10/09 12:11:52;;;;;;;;;;;;;;;-144.99;100.00;52397.13;5020634;28;20306;-73
2023/10/09 12:14:23;;;;;;;;;;;;;;;-144.99;100.00;52395.09;5026000;28;20020;-68
2023/10/09 12:16:51;;;;;;;;;;;;;;;-144.99;100.00;52364.53;5027121;28;20039;-69
2023/10/09 12:19:18;;;;;;;;;;;;;;;-144.99;100.00;52399.19;5030570;28;19956;-71
2023/10/09 12:21:44;;;;;;;;;;;;;;;-144.99;100.00;52386.94;5020992;28;19941;-70
2023/10/09 12:24:12;;;;;;;;;;;;;;;-144.99;100.00;52340.06;5023373;28;20058;-68
2023/10/09 12:26:40;;;;;;;;;;;;;;;-144.99;100.00;52384.91;5009219;28;19959;-70
2023/10/09 12:29:10;;;;;;;;;;;;;;;-144.99;100.00;52366.56;5029842;28;20195;-72
2023/10/09 12:31:38;;;;;;;;;;;;;;;-144.99;100.00;52333.94;5027714;28;20008;-69
2023/10/09 12:34:05;;;;;;;;;;;;;;;-144.99;100.00;52374.72;5014211;28;19967;-69
2023/10/09 12:36:37;;;;;;;;;;;;;;;-144.99;100.00;52378.78;5024960;28;19946;-70
2023/10/09 12:39:05;;;;;;;;;;;;;;;-144.99;100.00;52399.19;5025934;28;19952;-70
2023/10/09 12:41:33;;;;;;;;;;;;;;;-144.99;100.00;52374.72;5025784;28;20329;-69
2023/10/09 12:43:59;;;;;;;;;;;;;;;-144.99;100.00;52386.94;5021332;28;19937;-70
2023/10/09 12:46:27;;;;;;;;;;;;;;;-144.99;100.00;52386.94;5024118;28;20043;-70
2023/10/09 12:48:55;;;;;;;;;;;;;;;-144.99;100.00;52358.41;5025921;28;20004;-70
2023/10/09 12:51:25;;;;;;;;;;;;;;;-144.99;100.00;52403.25;5036659;28;19964;-73
2023/10/09 12:53:56;;;;;;;;;;;;;;;-144.99;100.00;52378.78;5018398;28;19955;-69
2023/10/09 12:56:23;;;;;;;;;;;;;;;-144.99;100.00;52386.94;5021227;28;19944;-71
2023/10/09 12:58:53;;;;;;;;;;;;;;;-144.99;100.00;52403.25;5021951;28;19980;-70
2023/10/09 13:01:20;;;;;;;;;;;;;;;-144.99;100.00;52407.31;5025931;28;20444;-70
2023/10/09 13:03:49;;;;;;;;;;;;;;;-144.99;100.00;52399.19;5016185;28;19954;-69
2023/10/09 13:06:23;;;;;;;;;;;;;;;-144.99;100.00;52372.69;5026236;28;20396;-69
2023/10/09 13:08:51;;;;;;;;;;;;;;;-144.99;100.00;52364.53;5025874;28;19941;-70
2023/10/09 13:11:18;;;;;;;;;;;;;;;-144.99;100.00;52370.63;5020888;28;20432;-69
2023/10/09 13:13:47;;;;;;;;;;;;;;;-144.99;100.00;52391.03;5018144;28;19947;-71
2023/10/09 13:16:22;;;;;;;;;;;;;;;-144.99;100.00;52342.09;5031343;28;19964;-69
2023/10/09 13:18:50;;;;;;;;;;;;;;;-144.99;100.00;52374.72;5022488;28;19943;-68
2023/10/09 13:21:19;;;;;;;;;;;;;;;-144.99;100.00;52374.72;5029833;28;19965;-69
2023/10/09 13:23:46;;;;;;;;;;;;;;;-144.99;100.00;52399.19;5023571;28;20418;-71
2023/10/09 13:26:19;;;;;;;;;;;;;;;-144.99;100.00;52393.06;5019541;28;20364;-69
2023/10/09 13:28:46;;;;;;;;;;;;;;;-144.99;100.00;52386.94;5018791;28;20007;-70
2023/10/09 13:31:14;;;;;;;;;;;;;;;-144.99;100.00;52354.34;5017063;28;20061;-70